sensor_id;sensor_type;location;lat;lon;timestamp;temperature;humidity
7494;DHT22;3788;49.902;8.590;2024-01-25T00:02:20;9.60;99.90
7494;DHT22;3788;49.902;8.590;2024-01-25T00:04:47;9.50;99.90
7494;DHT22;3788;49.902;8.590;2024-01-25T00:07:15;9.40;99.90
7494;DHT22;3788;49.902;8.590;2024-01-25T00:09:40;9.40;99.90
7494;DHT22;3788;49.902;8.590;2024-01-25T00:12:07;9.30;99.90
7494;DHT22;3788;49.902;8.590;2024-01-25T00:14:34;9.20;99.90
7494;DHT22;3788;49.902;8.590;2024-01-25T00:17:00;9.20;99.90
7494;DHT22;3788;49.902;8.590;2024-01-25T00:19:27;9.10;99.90
7494;DHT22;3788;49.902;8.590;2024-01-25T00:21:53;9.10;99.90
7494;DHT22;3788;49.902;8.590;2024-01-25T00:24:21;9.20;99.90
7494;DHT22;3788;49.902;8.590;2024-01-25T00:26:48;9.10;99.90
7494;DHT22;3788;49.902;8.590;2024-01-25T00:29:15;9.20;99.90
7494;DHT22;3788;49.902;8.590;2024-01-25T00:31:41;9.20;99.90
7494;DHT22;3788;49.902;8.590;2024-01-25T00:34:08;9.20;99.90
7494;DHT22;3788;49.902;8.590;2024-01-25T00:36:36;9.20;99.90
7494;DHT22;3788;49.902;8.590;2024-01-25T00:39:03;9.20;99.90
7494;DHT22;3788;49.902;8.590;2024-01-25T00:41:32;9.20;99.90
7494;DHT22;3788;49.902;8.590;2024-01-25T00:43:59;9.20;99.90
7494;DHT22;3788;49.902;8.590;2024-01-25T00:46:26;9.20;99.90
7494;DHT22;3788;49.902;8.590;2024-01-25T00:48:53;9.20;99.90
7494;DHT22;3788;49.902;8.590;2024-01-25T00:51:21;9.20;99.90
7494;DHT22;3788;49.902;8.590;2024-01-25T00:53:49;9.20;99.90
7494;DHT22;3788;49.902;8.590;2024-01-25T00:56:16;9.20;99.90
7494;DHT22;3788;49.902;8.590;2024-01-25T00:58:44;9.20;99.90
7494;DHT22;3788;49.902;8.590;2024-01-25T01:01:12;9.20;99.90
7494;DHT22;3788;49.902;8.590;2024-01-25T01:03:39;9.20;99.90
7494;DHT22;3788;49.902;8.590;2024-01-25T01:06:07;9.20;99.90
7494;DHT22;3788;49.902;8.590;2024-01-25T01:08:34;9.20;99.90
7494;DHT22;3788;49.902;8.590;2024-01-25T01:11:00;9.20;99.90
7494;DHT22;3788;49.902;8.590;2024-01-25T01:13:27;9.20;99.90
7494;DHT22;3788;49.902;8.590;2024-01-25T01:15:55;9.20;99.90
7494;DHT22;3788;49.902;8.590;2024-01-25T01:18:22;9.20;99.90
7494;DHT22;3788;49.902;8.590;2024-01-25T01:20:48;9.20;99.90
7494;DHT22;3788;49.902;8.590;2024-01-25T01:23:15;9.30;99.90
7494;DHT22;3788;49.902;8.590;2024-01-25T01:25:42;9.30;99.90
7494;DHT22;3788;49.902;8.590;2024-01-25T01:28:08;9.30;99.90
7494;DHT22;3788;49.902;8.590;2024-01-25T01:30:35;9.30;99.90
7494;DHT22;3788;49.902;8.590;2024-01-25T01:33:03;9.30;99.90
7494;DHT22;3788;49.902;8.590;2024-01-25T01:35:30;9.30;99.90
7494;DHT22;3788;49.902;8.590;2024-01-25T01:37:56;9.30;99.90
7494;DHT22;3788;49.902;8.590;2024-01-25T01:40:23;9.30;99.90
7494;DHT22;3788;49.902;8.590;2024-01-25T01:42:50;9.30;99.90
7494;DHT22;3788;49.902;8.590;2024-01-25T01:45:16;9.30;99.90
7494;DHT22;3788;49.902;8.590;2024-01-25T01:47:44;9.30;99.90
7494;DHT22;3788;49.902;8.590;2024-01-25T01:50:12;9.30;99.90
7494;DHT22;3788;49.902;8.590;2024-01-25T01:52:39;9.30;99.90
7494;DHT22;3788;49.902;8.590;2024-01-25T01:55:06;9.30;99.90
7494;DHT22;3788;49.902;8.590;2024-01-25T01:57:34;9.30;99.90
7494;DHT22;3788;49.902;8.590;2024-01-25T02:00:03;9.30;99.90
7494;DHT22;3788;49.902;8.590;2024-01-25T02:02:30;9.30;99.90
7494;DHT22;3788;49.902;8.590;2024-01-25T02:04:57;9.30;99.90
7494;DHT22;3788;49.902;8.590;2024-01-25T02:07:25;9.30;99.90
7494;DHT22;3788;49.902;8.590;2024-01-25T02:09:51;9.30;99.90
7494;DHT22;3788;49.902;8.590;2024-01-25T02:12:18;9.20;99.90
7494;DHT22;3788;49.902;8.590;2024-01-25T02:14:45;9.20;99.90
7494;DHT22;3788;49.902;8.590;2024-01-25T02:17:12;9.20;99.90
7494;DHT22;3788;49.902;8.590;2024-01-25T02:19:38;9.10;99.90
7494;DHT22;3788;49.902;8.590;2024-01-25T02:22:05;9.10;99.90
7494;DHT22;3788;49.902;8.590;2024-01-25T02:24:33;9.10;99.90
7494;DHT22;3788;49.902;8.590;2024-01-25T02:27:00;9.00;99.90
7494;DHT22;3788;49.902;8.590;2024-01-25T02:29:27;9.00;99.90
7494;DHT22;3788;49.902;8.590;2024-01-25T02:31:53;8.90;99.90
7494;DHT22;3788;49.902;8.590;2024-01-25T02:34:20;8.90;99.90
7494;DHT22;3788;49.902;8.590;2024-01-25T02:36:47;8.90;99.90
7494;DHT22;3788;49.902;8.590;2024-01-25T02:39:13;8.90;99.90
7494;DHT22;3788;49.902;8.590;2024-01-25T02:41:41;8.90;99.90
7494;DHT22;3788;49.902;8.590;2024-01-25T02:44:08;8.90;99.90
7494;DHT22;3788;49.902;8.590;2024-01-25T02:46:35;8.90;99.90
7494;DHT22;3788;49.902;8.590;2024-01-25T02:49:00;8.90;99.90
7494;DHT22;3788;49.902;8.590;2024-01-25T02:51:27;8.80;99.90
7494;DHT22;3788;49.902;8.590;2024-01-25T02:53:53;8.80;99.90
7494;DHT22;3788;49.902;8.590;2024-01-25T02:56:20;8.90;99.90
7494;DHT22;3788;49.902;8.590;2024-01-25T02:58:48;8.90;99.90
7494;DHT22;3788;49.902;8.590;2024-01-25T03:01:15;8.80;99.90
7494;DHT22;3788;49.902;8.590;2024-01-25T03:03:41;8.80;99.90
7494;DHT22;3788;49.902;8.590;2024-01-25T03:06:08;8.80;99.90
7494;DHT22;3788;49.902;8.590;2024-01-25T03:08:35;8.80;99.90
7494;DHT22;3788;49.902;8.590;2024-01-25T03:11:02;8.70;99.90
7494;DHT22;3788;49.902;8.590;2024-01-25T03:13:30;8.70;99.90
7494;DHT22;3788;49.902;8.590;2024-01-25T03:15:58;8.60;99.90
7494;DHT22;3788;49.902;8.590;2024-01-25T03:18:24;8.60;99.90
7494;DHT22;3788;49.902;8.590;2024-01-25T03:20:51;8.60;99.90
7494;DHT22;3788;49.902;8.590;2024-01-25T03:23:17;8.60;99.90
7494;DHT22;3788;49.902;8.590;2024-01-25T03:25:44;8.60;99.90
7494;DHT22;3788;49.902;8.590;2024-01-25T03:28:11;8.60;99.90
7494;DHT22;3788;49.902;8.590;2024-01-25T03:30:39;8.60;99.90
7494;DHT22;3788;49.902;8.590;2024-01-25T03:33:07;8.50;99.90
7494;DHT22;3788;49.902;8.590;2024-01-25T03:35:33;8.50;99.90
7494;DHT22;3788;49.902;8.590;2024-01-25T03:38:00;8.50;99.90
7494;DHT22;3788;49.902;8.590;2024-01-25T03:40:27;8.50;99.90
7494;DHT22;3788;49.902;8.590;2024-01-25T03:42:53;8.50;99.90
7494;DHT22;3788;49.902;8.590;2024-01-25T03:45:20;8.40;99.90
7494;DHT22;3788;49.902;8.590;2024-01-25T03:47:46;8.50;99.90
7494;DHT22;3788;49.902;8.590;2024-01-25T03:50:15;8.50;99.90
7494;DHT22;3788;49.902;8.590;2024-01-25T03:52:41;8.50;99.90
7494;DHT22;3788;49.902;8.590;2024-01-25T03:55:08;8.60;99.90
7494;DHT22;3788;49.902;8.590;2024-01-25T03:57:35;8.60;99.90
7494;DHT22;3788;49.902;8.590;2024-01-25T04:00:02;8.60;99.90
7494;DHT22;3788;49.902;8.590;2024-01-25T04:02:29;8.60;99.90
7494;DHT22;3788;49.902;8.590;2024-01-25T04:04:56;8.60;99.90
7494;DHT22;3788;49.902;8.590;2024-01-25T04:07:24;8.60;99.90
7494;DHT22;3788;49.902;8.590;2024-01-25T04:09:50;8.60;99.90
7494;DHT22;3788;49.902;8.590;2024-01-25T04:12:17;8.60;99.90
7494;DHT22;3788;49.902;8.590;2024-01-25T04:14:44;8.60;99.90
7494;DHT22;3788;49.902;8.590;2024-01-25T04:17:11;8.60;99.90
7494;DHT22;3788;49.902;8.590;2024-01-25T04:19:37;8.60;99.90
7494;DHT22;3788;49.902;8.590;2024-01-25T04:22:04;8.60;99.90
7494;DHT22;3788;49.902;8.590;2024-01-25T04:24:32;8.60;99.90
7494;DHT22;3788;49.902;8.590;2024-01-25T04:26:59;8.60;99.90
7494;DHT22;3788;49.902;8.590;2024-01-25T04:29:25;8.50;99.90
7494;DHT22;3788;49.902;8.590;2024-01-25T04:31:52;8.50;99.90
7494;DHT22;3788;49.902;8.590;2024-01-25T04:34:19;8.40;99.90
7494;DHT22;3788;49.902;8.590;2024-01-25T04:36:45;8.40;99.90
7494;DHT22;3788;49.902;8.590;2024-01-25T04:39:12;8.30;99.90
7494;DHT22;3788;49.902;8.590;2024-01-25T04:41:40;8.20;99.90
7494;DHT22;3788;49.902;8.590;2024-01-25T04:44:07;8.20;99.90
7494;DHT22;3788;49.902;8.590;2024-01-25T04:46:33;8.10;99.90
7494;DHT22;3788;49.902;8.590;2024-01-25T04:49:02;8.00;99.90
7494;DHT22;3788;49.902;8.590;2024-01-25T04:51:29;8.00;99.90
7494;DHT22;3788;49.902;8.590;2024-01-25T04:53:56;8.00;99.90
7494;DHT22;3788;49.902;8.590;2024-01-25T04:56:22;7.90;99.90
7494;DHT22;3788;49.902;8.590;2024-01-25T04:58:50;7.80;99.90
7494;DHT22;3788;49.902;8.590;2024-01-25T05:01:17;7.80;99.90
7494;DHT22;3788;49.902;8.590;2024-01-25T05:03:43;7.80;99.90
7494;DHT22;3788;49.902;8.590;2024-01-25T05:06:10;7.80;99.90
7494;DHT22;3788;49.902;8.590;2024-01-25T05:08:37;7.70;99.90
7494;DHT22;3788;49.902;8.590;2024-01-25T05:11:04;7.70;99.90
7494;DHT22;3788;49.902;8.590;2024-01-25T05:13:30;7.80;99.90
7494;DHT22;3788;49.902;8.590;2024-01-25T05:15:58;7.80;99.90
7494;DHT22;3788;49.902;8.590;2024-01-25T05:18:25;7.80;99.90
7494;DHT22;3788;49.902;8.590;2024-01-25T05:20:52;7.70;99.90
7494;DHT22;3788;49.902;8.590;2024-01-25T05:23:18;7.80;99.90
7494;DHT22;3788;49.902;8.590;2024-01-25T05:25:45;7.70;99.90
7494;DHT22;3788;49.902;8.590;2024-01-25T05:28:11;7.70;99.90
7494;DHT22;3788;49.902;8.590;2024-01-25T05:30:38;7.70;99.90
7494;DHT22;3788;49.902;8.590;2024-01-25T05:33:06;7.70;99.90
7494;DHT22;3788;49.902;8.590;2024-01-25T05:35:33;7.70;99.90
7494;DHT22;3788;49.902;8.590;2024-01-25T05:38:00;7.60;99.90
7494;DHT22;3788;49.902;8.590;2024-01-25T05:40:27;7.70;99.90
7494;DHT22;3788;49.902;8.590;2024-01-25T05:42:53;7.70;99.90
7494;DHT22;3788;49.902;8.590;2024-01-25T05:45:20;7.70;99.90
7494;DHT22;3788;49.902;8.590;2024-01-25T05:47:47;7.70;99.90
7494;DHT22;3788;49.902;8.590;2024-01-25T05:50:15;7.70;99.90
7494;DHT22;3788;49.902;8.590;2024-01-25T05:52:42;7.70;99.90
7494;DHT22;3788;49.902;8.590;2024-01-25T05:55:09;7.60;99.90
7494;DHT22;3788;49.902;8.590;2024-01-25T05:57:36;7.60;99.90
7494;DHT22;3788;49.902;8.590;2024-01-25T06:00:04;7.60;99.90
7494;DHT22;3788;49.902;8.590;2024-01-25T06:02:31;7.50;99.90
7494;DHT22;3788;49.902;8.590;2024-01-25T06:04:58;7.50;99.90
7494;DHT22;3788;49.902;8.590;2024-01-25T06:07:26;7.50;99.90
7494;DHT22;3788;49.902;8.590;2024-01-25T06:09:53;7.40;99.90
7494;DHT22;3788;49.902;8.590;2024-01-25T06:12:20;7.40;99.90
7494;DHT22;3788;49.902;8.590;2024-01-25T06:14:46;7.30;99.90
7494;DHT22;3788;49.902;8.590;2024-01-25T06:17:14;7.30;99.90
7494;DHT22;3788;49.902;8.590;2024-01-25T06:19:40;7.20;99.90
7494;DHT22;3788;49.902;8.590;2024-01-25T06:22:07;7.20;99.90
7494;DHT22;3788;49.902;8.590;2024-01-25T06:24:35;7.20;99.90
7494;DHT22;3788;49.902;8.590;2024-01-25T06:27:02;7.10;99.90
7494;DHT22;3788;49.902;8.590;2024-01-25T06:29:28;7.10;99.90
7494;DHT22;3788;49.902;8.590;2024-01-25T06:31:55;7.10;99.90
7494;DHT22;3788;49.902;8.590;2024-01-25T06:34:21;7.10;99.90
7494;DHT22;3788;49.902;8.590;2024-01-25T06:36:48;7.10;99.90
7494;DHT22;3788;49.902;8.590;2024-01-25T06:39:15;7.10;99.90
7494;DHT22;3788;49.902;8.590;2024-01-25T06:41:43;7.10;99.90
7494;DHT22;3788;49.902;8.590;2024-01-25T06:44:09;7.00;99.90
7494;DHT22;3788;49.902;8.590;2024-01-25T06:46:36;7.00;99.90
7494;DHT22;3788;49.902;8.590;2024-01-25T06:49:02;6.90;99.90
7494;DHT22;3788;49.902;8.590;2024-01-25T06:51:29;6.90;99.90
7494;DHT22;3788;49.902;8.590;2024-01-25T06:53:56;6.80;99.90
7494;DHT22;3788;49.902;8.590;2024-01-25T06:56:23;6.80;99.90
7494;DHT22;3788;49.902;8.590;2024-01-25T06:58:51;6.80;99.90
7494;DHT22;3788;49.902;8.590;2024-01-25T07:01:20;6.80;99.90
7494;DHT22;3788;49.902;8.590;2024-01-25T07:03:47;6.80;99.90
7494;DHT22;3788;49.902;8.590;2024-01-25T07:06:15;6.80;99.90
7494;DHT22;3788;49.902;8.590;2024-01-25T07:08:42;6.70;99.90
7494;DHT22;3788;49.902;8.590;2024-01-25T07:11:09;6.80;99.90
7494;DHT22;3788;49.902;8.590;2024-01-25T07:13:35;6.70;99.90
7494;DHT22;3788;49.902;8.590;2024-01-25T07:16:04;6.70;99.90
7494;DHT22;3788;49.902;8.590;2024-01-25T07:18:31;6.70;99.90
7494;DHT22;3788;49.902;8.590;2024-01-25T07:20:57;6.80;99.90
7494;DHT22;3788;49.902;8.590;2024-01-25T07:23:24;6.70;99.90
7494;DHT22;3788;49.902;8.590;2024-01-25T07:25:52;6.70;99.90
7494;DHT22;3788;49.902;8.590;2024-01-25T07:28:19;6.60;99.90
7494;DHT22;3788;49.902;8.590;2024-01-25T07:30:46;6.60;99.90
7494;DHT22;3788;49.902;8.590;2024-01-25T07:33:14;6.60;99.90
7494;DHT22;3788;49.902;8.590;2024-01-25T07:35:41;6.50;99.90
7494;DHT22;3788;49.902;8.590;2024-01-25T07:38:11;6.50;99.90
7494;DHT22;3788;49.902;8.590;2024-01-25T07:40:37;6.50;99.90
7494;DHT22;3788;49.902;8.590;2024-01-25T07:43:04;6.50;99.90
7494;DHT22;3788;49.902;8.590;2024-01-25T07:45:31;6.50;99.90
7494;DHT22;3788;49.902;8.590;2024-01-25T07:47:58;6.60;99.90
7494;DHT22;3788;49.902;8.590;2024-01-25T07:50:26;6.60;99.90
7494;DHT22;3788;49.902;8.590;2024-01-25T07:52:54;6.70;99.90
7494;DHT22;3788;49.902;8.590;2024-01-25T07:55:20;6.80;99.90
7494;DHT22;3788;49.902;8.590;2024-01-25T07:57:47;6.80;99.90
7494;DHT22;3788;49.902;8.590;2024-01-25T08:00:14;6.90;99.90
7494;DHT22;3788;49.902;8.590;2024-01-25T08:02:42;6.90;99.90
7494;DHT22;3788;49.902;8.590;2024-01-25T08:05:10;7.00;99.90
7494;DHT22;3788;49.902;8.590;2024-01-25T08:07:38;7.00;99.90
7494;DHT22;3788;49.902;8.590;2024-01-25T08:10:06;7.10;99.90
7494;DHT22;3788;49.902;8.590;2024-01-25T08:12:33;7.30;99.90
7494;DHT22;3788;49.902;8.590;2024-01-25T08:15:00;7.50;99.90
7494;DHT22;3788;49.902;8.590;2024-01-25T08:17:26;7.80;99.90
7494;DHT22;3788;49.902;8.590;2024-01-25T08:19:53;8.10;99.90
7494;DHT22;3788;49.902;8.590;2024-01-25T08:22:22;8.30;99.90
7494;DHT22;3788;49.902;8.590;2024-01-25T08:24:51;8.60;99.90
7494;DHT22;3788;49.902;8.590;2024-01-25T08:27:18;8.90;99.90
7494;DHT22;3788;49.902;8.590;2024-01-25T08:29:45;9.10;99.90
7494;DHT22;3788;49.902;8.590;2024-01-25T08:32:12;9.50;99.90
7494;DHT22;3788;49.902;8.590;2024-01-25T08:34:38;9.90;99.90
7494;DHT22;3788;49.902;8.590;2024-01-25T08:37:05;10.20;98.80
7494;DHT22;3788;49.902;8.590;2024-01-25T08:39:32;10.40;98.10
7494;DHT22;3788;49.902;8.590;2024-01-25T08:42:01;10.60;98.10
7494;DHT22;3788;49.902;8.590;2024-01-25T08:44:31;10.90;97.60
7494;DHT22;3788;49.902;8.590;2024-01-25T08:46:57;11.20;96.50
7494;DHT22;3788;49.902;8.590;2024-01-25T08:49:24;11.30;96.00
7494;DHT22;3788;49.902;8.590;2024-01-25T08:51:51;11.50;95.50
7494;DHT22;3788;49.902;8.590;2024-01-25T08:54:18;11.60;95.10
7494;DHT22;3788;49.902;8.590;2024-01-25T08:56:44;11.80;94.90
7494;DHT22;3788;49.902;8.590;2024-01-25T08:59:12;11.80;94.90
7494;DHT22;3788;49.902;8.590;2024-01-25T09:01:39;11.90;94.60
7494;DHT22;3788;49.902;8.590;2024-01-25T09:04:06;12.00;94.40
7494;DHT22;3788;49.902;8.590;2024-01-25T09:06:33;12.00;94.20
7494;DHT22;3788;49.902;8.590;2024-01-25T09:08:59;12.00;94.20
7494;DHT22;3788;49.902;8.590;2024-01-25T09:11:26;12.00;94.20
7494;DHT22;3788;49.902;8.590;2024-01-25T09:13:53;11.90;94.00
7494;DHT22;3788;49.902;8.590;2024-01-25T09:16:21;11.70;93.90
7494;DHT22;3788;49.902;8.590;2024-01-25T09:18:48;11.40;94.40
7494;DHT22;3788;49.902;8.590;2024-01-25T09:21:14;11.20;95.00
7494;DHT22;3788;49.902;8.590;2024-01-25T09:23:41;11.00;95.50
7494;DHT22;3788;49.902;8.590;2024-01-25T09:26:07;10.80;95.90
7494;DHT22;3788;49.902;8.590;2024-01-25T09:28:34;10.80;96.40
7494;DHT22;3788;49.902;8.590;2024-01-25T09:31:01;10.70;96.50
7494;DHT22;3788;49.902;8.590;2024-01-25T09:33:29;10.60;96.70
7494;DHT22;3788;49.902;8.590;2024-01-25T09:35:56;10.60;97.10
7494;DHT22;3788;49.902;8.590;2024-01-25T09:38:23;10.50;97.10
7494;DHT22;3788;49.902;8.590;2024-01-25T09:40:49;10.50;97.20
7494;DHT22;3788;49.902;8.590;2024-01-25T09:43:17;10.50;97.10
7494;DHT22;3788;49.902;8.590;2024-01-25T09:45:46;10.40;97.30
7494;DHT22;3788;49.902;8.590;2024-01-25T09:48:13;10.40;97.50
7494;DHT22;3788;49.902;8.590;2024-01-25T09:50:42;10.40;97.60
7494;DHT22;3788;49.902;8.590;2024-01-25T09:53:15;10.40;97.70
7494;DHT22;3788;49.902;8.590;2024-01-25T09:55:45;10.30;97.70
7494;DHT22;3788;49.902;8.590;2024-01-25T09:58:13;10.30;97.90
7494;DHT22;3788;49.902;8.590;2024-01-25T10:00:40;10.30;98.10
7494;DHT22;3788;49.902;8.590;2024-01-25T10:03:09;10.30;98.20
7494;DHT22;3788;49.902;8.590;2024-01-25T10:05:36;10.30;97.90
7494;DHT22;3788;49.902;8.590;2024-01-25T10:08:12;10.40;97.90
7494;DHT22;3788;49.902;8.590;2024-01-25T10:10:40;10.40;97.90
7494;DHT22;3788;49.902;8.590;2024-01-25T10:13:12;10.40;97.90
7494;DHT22;3788;49.902;8.590;2024-01-25T10:15:39;10.30;98.10
7494;DHT22;3788;49.902;8.590;2024-01-25T10:18:07;10.40;98.30
7494;DHT22;3788;49.902;8.590;2024-01-25T10:20:38;10.40;98.10
7494;DHT22;3788;49.902;8.590;2024-01-25T10:23:06;10.40;98.00
7494;DHT22;3788;49.902;8.590;2024-01-25T10:25:34;10.40;98.30
7494;DHT22;3788;49.902;8.590;2024-01-25T10:28:01;10.50;98.30
7494;DHT22;3788;49.902;8.590;2024-01-25T10:30:31;10.50;98.10
7494;DHT22;3788;49.902;8.590;2024-01-25T10:32:59;10.50;98.00
7494;DHT22;3788;49.902;8.590;2024-01-25T10:35:26;10.60;98.00
7494;DHT22;3788;49.902;8.590;2024-01-25T10:37:53;10.60;98.00
7494;DHT22;3788;49.902;8.590;2024-01-25T10:40:23;10.60;98.00
7494;DHT22;3788;49.902;8.590;2024-01-25T10:42:49;10.70;97.90
7494;DHT22;3788;49.902;8.590;2024-01-25T10:45:16;10.70;97.90
7494;DHT22;3788;49.902;8.590;2024-01-25T10:47:44;10.80;97.70
7494;DHT22;3788;49.902;8.590;2024-01-25T10:50:14;10.80;97.80
7494;DHT22;3788;49.902;8.590;2024-01-25T10:52:42;10.90;97.80
7494;DHT22;3788;49.902;8.590;2024-01-25T10:55:11;11.00;97.60
7494;DHT22;3788;49.902;8.590;2024-01-25T10:57:42;11.00;97.20
7494;DHT22;3788;49.902;8.590;2024-01-25T11:00:11;10.90;97.20
7494;DHT22;3788;49.902;8.590;2024-01-25T11:02:39;10.90;97.10
7494;DHT22;3788;49.902;8.590;2024-01-25T11:05:08;10.90;96.80
7494;DHT22;3788;49.902;8.590;2024-01-25T11:07:42;10.90;96.90
7494;DHT22;3788;49.902;8.590;2024-01-25T11:10:15;11.00;96.80
7494;DHT22;3788;49.902;8.590;2024-01-25T11:12:51;11.00;96.90
7494;DHT22;3788;49.902;8.590;2024-01-25T11:15:21;11.00;96.70
7494;DHT22;3788;49.902;8.590;2024-01-25T11:17:53;11.00;96.70
7494;DHT22;3788;49.902;8.590;2024-01-25T11:20:21;11.00;96.70
7494;DHT22;3788;49.902;8.590;2024-01-25T11:22:48;11.00;96.70
7494;DHT22;3788;49.902;8.590;2024-01-25T11:25:19;11.10;96.60
7494;DHT22;3788;49.902;8.590;2024-01-25T11:27:49;11.10;96.40
7494;DHT22;3788;49.902;8.590;2024-01-25T11:30:18;11.10;96.30
7494;DHT22;3788;49.902;8.590;2024-01-25T11:32:46;11.10;96.10
7494;DHT22;3788;49.902;8.590;2024-01-25T11:35:13;11.10;96.20
7494;DHT22;3788;49.902;8.590;2024-01-25T11:37:42;11.00;96.40
7494;DHT22;3788;49.902;8.590;2024-01-25T11:40:10;11.00;96.50
7494;DHT22;3788;49.902;8.590;2024-01-25T11:42:36;11.10;96.50
7494;DHT22;3788;49.902;8.590;2024-01-25T11:45:06;11.10;96.40
7494;DHT22;3788;49.902;8.590;2024-01-25T11:47:34;11.20;96.40
7494;DHT22;3788;49.902;8.590;2024-01-25T11:50:01;11.20;96.10
7494;DHT22;3788;49.902;8.590;2024-01-25T11:52:28;11.30;96.00
7494;DHT22;3788;49.902;8.590;2024-01-25T11:54:57;11.40;95.90
7494;DHT22;3788;49.902;8.590;2024-01-25T11:57:24;11.40;95.50
7494;DHT22;3788;49.902;8.590;2024-01-25T11:59:51;11.50;95.10
7494;DHT22;3788;49.902;8.590;2024-01-25T12:02:19;11.50;94.70
7494;DHT22;3788;49.902;8.590;2024-01-25T12:04:47;11.50;94.50
7494;DHT22;3788;49.902;8.590;2024-01-25T12:07:14;11.50;94.60
7494;DHT22;3788;49.902;8.590;2024-01-25T12:09:41;11.60;94.00
7494;DHT22;3788;49.902;8.590;2024-01-25T12:12:09;11.60;93.10
7494;DHT22;3788;49.902;8.590;2024-01-25T12:14:36;11.60;93.10
7494;DHT22;3788;49.902;8.590;2024-01-25T12:17:03;11.60;93.60
7494;DHT22;3788;49.902;8.590;2024-01-25T12:19:31;11.60;93.30
7494;DHT22;3788;49.902;8.590;2024-01-25T12:22:00;11.60;93.20
7494;DHT22;3788;49.902;8.590;2024-01-25T12:24:27;11.60;93.20
7494;DHT22;3788;49.902;8.590;2024-01-25T12:26:54;11.60;92.90
7494;DHT22;3788;49.902;8.590;2024-01-25T12:29:21;11.70;92.80
7494;DHT22;3788;49.902;8.590;2024-01-25T12:31:48;11.70;92.80
7494;DHT22;3788;49.902;8.590;2024-01-25T12:34:15;11.80;92.90
7494;DHT22;3788;49.902;8.590;2024-01-25T12:36:43;11.80;92.80
7494;DHT22;3788;49.902;8.590;2024-01-25T12:39:10;11.80;92.50
7494;DHT22;3788;49.902;8.590;2024-01-25T12:41:39;11.80;92.40
7494;DHT22;3788;49.902;8.590;2024-01-25T12:44:06;11.80;92.50
7494;DHT22;3788;49.902;8.590;2024-01-25T12:46:33;11.80;92.60
7494;DHT22;3788;49.902;8.590;2024-01-25T12:49:00;11.80;92.60
7494;DHT22;3788;49.902;8.590;2024-01-25T12:51:26;11.90;92.50
7494;DHT22;3788;49.902;8.590;2024-01-25T12:53:55;11.90;92.50
7494;DHT22;3788;49.902;8.590;2024-01-25T12:56:22;11.90;92.60
7494;DHT22;3788;49.902;8.590;2024-01-25T12:58:49;11.90;92.40
7494;DHT22;3788;49.902;8.590;2024-01-25T13:01:15;12.00;92.10
7494;DHT22;3788;49.902;8.590;2024-01-25T13:03:42;12.00;91.90
7494;DHT22;3788;49.902;8.590;2024-01-25T13:06:11;12.00;91.90
7494;DHT22;3788;49.902;8.590;2024-01-25T13:08:38;12.00;92.00
7494;DHT22;3788;49.902;8.590;2024-01-25T13:11:07;12.00;92.10
7494;DHT22;3788;49.902;8.590;2024-01-25T13:13:33;12.00;92.10
7494;DHT22;3788;49.902;8.590;2024-01-25T13:16:00;12.00;92.00
7494;DHT22;3788;49.902;8.590;2024-01-25T13:18:27;12.00;91.90
7494;DHT22;3788;49.902;8.590;2024-01-25T13:20:54;12.00;91.50
7494;DHT22;3788;49.902;8.590;2024-01-25T13:23:20;12.00;91.60
7494;DHT22;3788;49.902;8.590;2024-01-25T13:25:47;12.00;91.50
7494;DHT22;3788;49.902;8.590;2024-01-25T13:28:15;12.00;91.60
7494;DHT22;3788;49.902;8.590;2024-01-25T13:30:43;12.00;92.10
7494;DHT22;3788;49.902;8.590;2024-01-25T13:33:09;12.00;91.80
7494;DHT22;3788;49.902;8.590;2024-01-25T13:35:36;12.10;92.10
7494;DHT22;3788;49.902;8.590;2024-01-25T13:38:03;12.10;91.80
7494;DHT22;3788;49.902;8.590;2024-01-25T13:40:30;12.20;91.90
7494;DHT22;3788;49.902;8.590;2024-01-25T13:45:38;12.20;91.90
7494;DHT22;3788;49.902;8.590;2024-01-25T13:48:05;12.20;91.80
7494;DHT22;3788;49.902;8.590;2024-01-25T13:50:32;12.10;91.70
7494;DHT22;3788;49.902;8.590;2024-01-25T13:52:58;12.10;91.80
7494;DHT22;3788;49.902;8.590;2024-01-25T13:55:25;12.10;91.90
7494;DHT22;3788;49.902;8.590;2024-01-25T13:57:52;12.10;92.00
7494;DHT22;3788;49.902;8.590;2024-01-25T14:00:19;12.00;91.90
7494;DHT22;3788;49.902;8.590;2024-01-25T14:02:47;12.00;91.90
7494;DHT22;3788;49.902;8.590;2024-01-25T14:05:14;12.00;92.00
7494;DHT22;3788;49.902;8.590;2024-01-25T14:07:41;11.90;92.10
7494;DHT22;3788;49.902;8.590;2024-01-25T14:10:08;11.90;92.20
7494;DHT22;3788;49.902;8.590;2024-01-25T14:12:35;12.00;92.60
7494;DHT22;3788;49.902;8.590;2024-01-25T14:15:02;12.00;92.30
7494;DHT22;3788;49.902;8.590;2024-01-25T14:17:29;12.10;92.30
7494;DHT22;3788;49.902;8.590;2024-01-25T14:19:57;12.10;92.30
7494;DHT22;3788;49.902;8.590;2024-01-25T14:22:24;12.10;92.40
7494;DHT22;3788;49.902;8.590;2024-01-25T14:24:50;12.10;92.30
7494;DHT22;3788;49.902;8.590;2024-01-25T14:27:17;12.00;92.20
7494;DHT22;3788;49.902;8.590;2024-01-25T14:29:44;12.00;92.20
7494;DHT22;3788;49.902;8.590;2024-01-25T14:32:10;11.90;92.20
7494;DHT22;3788;49.902;8.590;2024-01-25T14:34:37;11.80;92.30
7494;DHT22;3788;49.902;8.590;2024-01-25T14:37:06;11.80;92.40
7494;DHT22;3788;49.902;8.590;2024-01-25T14:39:35;11.70;92.50
7494;DHT22;3788;49.902;8.590;2024-01-25T14:42:03;11.70;92.60
7494;DHT22;3788;49.902;8.590;2024-01-25T14:44:29;11.70;92.70
7494;DHT22;3788;49.902;8.590;2024-01-25T14:46:56;11.60;92.80
7494;DHT22;3788;49.902;8.590;2024-01-25T14:49:24;11.50;92.80
7494;DHT22;3788;49.902;8.590;2024-01-25T14:51:51;11.50;92.90
7494;DHT22;3788;49.902;8.590;2024-01-25T14:54:19;11.40;93.00
7494;DHT22;3788;49.902;8.590;2024-01-25T14:56:46;11.40;93.20
7494;DHT22;3788;49.902;8.590;2024-01-25T14:59:15;11.40;93.30
7494;DHT22;3788;49.902;8.590;2024-01-25T15:01:42;11.30;93.30
7494;DHT22;3788;49.902;8.590;2024-01-25T15:04:08;11.30;93.50
7494;DHT22;3788;49.902;8.590;2024-01-25T15:06:35;11.20;93.60
7494;DHT22;3788;49.902;8.590;2024-01-25T15:09:02;11.20;93.70
7494;DHT22;3788;49.902;8.590;2024-01-25T15:11:30;11.20;93.80
7494;DHT22;3788;49.902;8.590;2024-01-25T15:13:57;11.20;93.90
7494;DHT22;3788;49.902;8.590;2024-01-25T15:16:23;11.20;94.00
7494;DHT22;3788;49.902;8.590;2024-01-25T15:18:50;11.10;94.10
7494;DHT22;3788;49.902;8.590;2024-01-25T15:21:16;11.10;94.20
7494;DHT22;3788;49.902;8.590;2024-01-25T15:23:43;11.10;94.40
7494;DHT22;3788;49.902;8.590;2024-01-25T15:26:10;11.10;94.50
7494;DHT22;3788;49.902;8.590;2024-01-25T15:28:38;11.10;94.60
7494;DHT22;3788;49.902;8.590;2024-01-25T15:31:05;11.10;94.70
7494;DHT22;3788;49.902;8.590;2024-01-25T15:33:31;11.00;94.80
7494;DHT22;3788;49.902;8.590;2024-01-25T15:35:58;11.00;95.00
7494;DHT22;3788;49.902;8.590;2024-01-25T15:38:25;11.00;95.10
7494;DHT22;3788;49.902;8.590;2024-01-25T15:40:51;11.00;95.30
7494;DHT22;3788;49.902;8.590;2024-01-25T15:43:18;10.90;95.40
7494;DHT22;3788;49.902;8.590;2024-01-25T15:45:46;10.90;95.60
7494;DHT22;3788;49.902;8.590;2024-01-25T15:48:13;10.90;95.70
7494;DHT22;3788;49.902;8.590;2024-01-25T15:50:39;10.90;95.80
7494;DHT22;3788;49.902;8.590;2024-01-25T15:53:06;10.90;95.80
7494;DHT22;3788;49.902;8.590;2024-01-25T15:55:33;10.80;95.90
7494;DHT22;3788;49.902;8.590;2024-01-25T15:58:00;10.80;96.00
7494;DHT22;3788;49.902;8.590;2024-01-25T16:00:26;10.70;96.10
7494;DHT22;3788;49.902;8.590;2024-01-25T16:02:54;10.70;96.20
7494;DHT22;3788;49.902;8.590;2024-01-25T16:05:21;10.70;96.20
7494;DHT22;3788;49.902;8.590;2024-01-25T16:07:48;10.60;96.30
7494;DHT22;3788;49.902;8.590;2024-01-25T16:10:15;10.50;96.40
7494;DHT22;3788;49.902;8.590;2024-01-25T16:12:42;10.50;96.60